createdAt,value
2023-04-16T00:00:09.517Z,18.83
2023-04-16T00:02:39.487Z,19.65
2023-04-16T00:05:07.893Z,18.65
2023-04-16T00:07:35.624Z,19.20
2023-04-16T00:10:04.538Z,19.85
2023-04-16T00:12:32.554Z,19.70
2023-04-16T00:15:01.262Z,20.15
2023-04-16T00:17:29.328Z,19.60
2023-04-16T00:19:57.838Z,18.23
2023-04-16T00:22:26.325Z,21.13
2023-04-16T00:24:54.655Z,19.60
2023-04-16T00:27:23.094Z,20.40
2023-04-16T00:29:51.759Z,20.83
2023-04-16T00:32:20.015Z,21.50
2023-04-16T00:34:48.413Z,21.70
2023-04-16T00:37:16.978Z,21.45
2023-04-16T00:39:45.577Z,19.73
2023-04-16T00:42:19.085Z,21.58
2023-04-16T00:44:49.395Z,20.17
2023-04-16T00:47:18.038Z,19.95
2023-04-16T00:49:47.029Z,20.90
2023-04-16T00:52:14.748Z,21.70
2023-04-16T00:54:43.592Z,21.23
2023-04-16T00:57:13.547Z,20.25
2023-04-16T00:59:44.420Z,20.95
2023-04-16T01:02:14.749Z,21.05
2023-04-16T01:04:45.098Z,20.65
2023-04-16T01:07:15.497Z,20.15
2023-04-16T01:09:46.077Z,21.75
2023-04-16T01:12:16.445Z,21.48
2023-04-16T01:14:47.359Z,21.98
2023-04-16T01:17:17.620Z,22.13
2023-04-16T01:19:47.926Z,22.83
2023-04-16T01:22:18.323Z,21.13
2023-04-16T01:24:48.513Z,21.85
2023-04-16T01:27:18.763Z,22.35
2023-04-16T01:29:48.977Z,22.25
2023-04-16T01:32:19.170Z,21.15
2023-04-16T01:34:49.382Z,22.33
2023-04-16T01:37:19.612Z,20.92
2023-04-16T01:39:49.896Z,22.08
2023-04-16T01:42:20.175Z,22.67
2023-04-16T01:44:50.408Z,21.45
2023-04-16T01:47:20.863Z,22.75
2023-04-16T01:49:51.694Z,24.02
2023-04-16T01:52:21.913Z,21.35
2023-04-16T01:54:52.188Z,22.70
2023-04-16T01:57:22.489Z,22.60
2023-04-16T01:59:52.709Z,22.58
2023-04-16T02:02:28.267Z,23.13
2023-04-16T02:04:58.635Z,23.23
2023-04-16T02:07:28.829Z,22.42
2023-04-16T02:09:59.053Z,22.15
2023-04-16T02:12:29.831Z,23.48
2023-04-16T02:15:00.792Z,23.63
2023-04-16T02:17:31.127Z,23.10
2023-04-16T02:20:03.447Z,23.77
2023-04-16T02:22:33.617Z,24.00
2023-04-16T02:25:04.292Z,24.17
2023-04-16T02:27:34.542Z,23.73
2023-04-16T02:30:05.661Z,23.92
2023-04-16T02:32:33.052Z,25.48
2023-04-16T02:35:04.300Z,24.38
2023-04-16T02:37:31.676Z,23.42
2023-04-16T02:40:00.173Z,25.02
2023-04-16T02:42:28.849Z,25.25
2023-04-16T02:44:56.897Z,23.77
2023-04-16T02:47:25.551Z,25.75
2023-04-16T02:49:53.820Z,26.45
2023-04-16T02:52:22.907Z,25.25
2023-04-16T02:54:53.052Z,26.65
2023-04-16T02:57:23.228Z,25.42
2023-04-16T02:59:53.609Z,25.33
2023-04-16T03:02:21.884Z,25.20
2023-04-16T03:04:50.251Z,25.75
2023-04-16T03:07:18.589Z,24.83
2023-04-16T03:09:47.187Z,25.75
2023-04-16T03:12:16.729Z,24.25
2023-04-16T03:14:46.668Z,25.20
2023-04-16T03:17:16.869Z,24.88
2023-04-16T03:19:47.208Z,25.30
2023-04-16T03:22:18.192Z,25.40
2023-04-16T03:24:48.520Z,26.27
2023-04-16T03:27:18.753Z,25.02
2023-04-16T03:29:48.862Z,26.98
2023-04-16T03:32:19.369Z,25.98
2023-04-16T03:34:49.558Z,26.95
2023-04-16T03:37:19.714Z,25.55
2023-04-16T03:39:49.982Z,27.23
2023-04-16T03:42:20.174Z,27.30
2023-04-16T03:44:50.655Z,26.13
2023-04-16T03:47:21.934Z,27.73
2023-04-16T03:49:52.183Z,27.10
2023-04-16T03:52:22.423Z,27.10
2023-04-16T03:54:52.774Z,28.33
2023-04-16T03:57:22.941Z,29.08
2023-04-16T03:59:53.149Z,30.08
2023-04-16T04:02:23.521Z,31.25
2023-04-16T04:04:53.850Z,31.50
2023-04-16T04:07:24.103Z,33.25
2023-04-16T04:09:54.487Z,32.92
2023-04-16T04:12:22.785Z,31.73
2023-04-16T04:14:51.542Z,33.97
2023-04-16T04:17:20.090Z,33.60
2023-04-16T04:20:00.520Z,32.08
2023-04-16T04:22:31.768Z,33.42
2023-04-16T04:25:00.195Z,34.80
2023-04-16T04:27:28.660Z,31.40
2023-04-16T04:29:58.196Z,34.00
2023-04-16T04:32:25.841Z,32.83
2023-04-16T04:34:54.208Z,33.67
2023-04-16T04:37:22.721Z,33.95
2023-04-16T04:39:51.193Z,33.63
2023-04-16T04:42:22.421Z,31.88
2023-04-16T04:44:50.980Z,31.92
2023-04-16T04:47:19.519Z,32.40
2023-04-16T04:49:47.854Z,32.05
2023-04-16T04:52:16.447Z,30.92
2023-04-16T04:54:44.661Z,31.67
2023-04-16T04:57:13.142Z,29.92
2023-04-16T04:59:41.589Z,30.90
2023-04-16T05:02:09.948Z,31.83
2023-04-16T05:04:38.452Z,29.35
2023-04-16T05:07:07.474Z,30.48
2023-04-16T05:09:35.322Z,30.63
2023-04-16T05:12:05.283Z,31.60
2023-04-16T05:14:36.446Z,32.50
2023-04-16T05:17:08.130Z,30.90
2023-04-16T05:19:38.459Z,31.73
2023-04-16T05:22:08.674Z,29.17
2023-04-16T05:24:39.029Z,30.00
2023-04-16T05:27:09.321Z,30.67
2023-04-16T05:29:39.484Z,30.25
2023-04-16T05:32:09.922Z,30.70
2023-04-16T05:34:40.071Z,31.15
2023-04-16T05:37:10.207Z,29.48
2023-04-16T05:39:40.598Z,29.77
2023-04-16T05:42:14.448Z,28.70
2023-04-16T05:44:44.713Z,29.27
2023-04-16T05:47:14.994Z,28.63
2023-04-16T05:49:45.288Z,28.88
2023-04-16T05:52:15.580Z,27.15
2023-04-16T05:54:45.767Z,27.95
2023-04-16T05:57:16.032Z,28.52
2023-04-16T05:59:46.244Z,27.85
2023-04-16T06:02:16.632Z,29.05
2023-04-16T06:04:46.935Z,27.50
2023-04-16T06:07:17.169Z,26.95
2023-04-16T06:09:47.388Z,27.58
2023-04-16T06:12:17.543Z,26.67
2023-04-16T06:14:47.783Z,25.95
2023-04-16T06:17:17.933Z,25.83
2023-04-16T06:19:48.037Z,24.88
2023-04-16T06:22:18.312Z,25.33
2023-04-16T06:24:48.652Z,26.52
2023-04-16T06:27:18.826Z,27.30
2023-04-16T06:29:49.525Z,25.02
2023-04-16T06:32:19.828Z,26.02
2023-04-16T06:34:50.402Z,23.65
2023-04-16T06:37:20.506Z,24.65
2023-04-16T06:39:48.939Z,23.95
2023-04-16T06:42:18.039Z,25.00
2023-04-16T06:44:46.602Z,22.98
2023-04-16T06:47:14.294Z,24.52
2023-04-16T06:49:42.753Z,23.13
2023-04-16T06:52:12.369Z,21.70
2023-04-16T06:54:40.221Z,22.98
2023-04-16T06:57:08.144Z,24.05
2023-04-16T06:59:36.690Z,23.48
2023-04-16T07:02:05.274Z,25.30
2023-04-16T07:04:33.438Z,22.10
2023-04-16T07:07:02.059Z,23.20
2023-04-16T07:09:30.382Z,24.10
2023-04-16T07:11:58.804Z,23.13
2023-04-16T07:14:27.127Z,22.90
2023-04-16T07:16:55.655Z,23.88
2023-04-16T07:19:24.170Z,24.30
2023-04-16T07:21:52.611Z,22.48
2023-04-16T07:24:20.862Z,22.63
2023-04-16T07:26:49.308Z,23.60
2023-04-16T07:29:17.690Z,24.08
2023-04-16T07:31:46.702Z,23.40
2023-04-16T07:34:14.773Z,23.65
2023-04-16T07:36:42.997Z,24.00
2023-04-16T07:39:12.397Z,23.60
2023-04-16T07:41:41.274Z,22.33
2023-04-16T07:44:11.307Z,23.13
2023-04-16T07:46:46.972Z,22.15
2023-04-16T07:49:17.802Z,22.35
2023-04-16T07:51:48.012Z,22.33
2023-04-16T07:54:18.193Z,22.33
2023-04-16T07:56:48.362Z,22.23
2023-04-16T07:59:23.397Z,23.05
2023-04-16T08:01:55.038Z,22.67
2023-04-16T08:04:26.459Z,22.63
2023-04-16T08:06:56.921Z,21.20
2023-04-16T08:09:28.884Z,21.33
2023-04-16T08:12:01.163Z,19.85
2023-04-16T08:14:31.418Z,20.98
2023-04-16T08:17:01.572Z,19.88
2023-04-16T08:19:31.757Z,20.83
2023-04-16T08:22:02.014Z,20.10
2023-04-16T08:24:32.585Z,20.67
2023-04-16T08:27:15.148Z,20.67
2023-04-16T08:29:48.866Z,19.13
2023-04-16T08:32:16.980Z,18.77
2023-04-16T08:34:45.669Z,19.17
2023-04-16T08:37:13.812Z,19.73
2023-04-16T08:39:42.168Z,19.40
2023-04-16T08:42:48.814Z,19.23
2023-04-16T08:45:20.340Z,19.60
2023-04-16T08:47:53.215Z,20.75
2023-04-16T08:50:26.964Z,20.48
2023-04-16T08:53:07.010Z,19.52
2023-04-16T08:55:43.581Z,20.08
2023-04-16T08:58:18.808Z,22.10
2023-04-16T09:00:49.996Z,20.02
2023-04-16T09:03:21.809Z,21.80
2023-04-16T09:05:55.754Z,18.27
2023-04-16T09:08:31.124Z,19.45
2023-04-16T09:11:01.514Z,18.55
2023-04-16T09:13:34.958Z,20.77
2023-04-16T09:16:09.568Z,20.20
2023-04-16T09:18:39.937Z,19.05
2023-04-16T09:21:13.596Z,18.77
2023-04-16T09:23:45.108Z,18.50
2023-04-16T09:26:15.492Z,18.15
2023-04-16T09:28:51.572Z,17.45
2023-04-16T09:31:22.177Z,18.73
2023-04-16T09:34:09.958Z,17.98
2023-04-16T09:36:39.011Z,17.58
2023-04-16T09:39:08.133Z,19.60
2023-04-16T09:41:39.765Z,19.33
2023-04-16T09:44:10.617Z,17.60
2023-04-16T09:46:44.093Z,21.73
2023-04-16T09:49:18.873Z,21.05
2023-04-16T09:51:52.892Z,19.67
2023-04-16T09:54:22.943Z,20.15
2023-04-16T09:56:58.098Z,19.83
2023-04-16T09:59:34.020Z,19.00
2023-04-16T10:02:15.802Z,18.90
2023-04-16T10:04:52.582Z,20.08
2023-04-16T10:07:23.460Z,18.52
2023-04-16T10:09:54.840Z,19.02
2023-04-16T10:12:24.157Z,16.60
2023-04-16T10:14:54.095Z,17.15
2023-04-16T10:17:26.630Z,18.00
2023-04-16T10:19:58.421Z,18.95
2023-04-16T10:22:26.933Z,17.42
2023-04-16T10:24:56.456Z,17.85
2023-04-16T10:27:27.834Z,18.30
2023-04-16T10:29:58.652Z,17.35
2023-04-16T10:32:31.565Z,17.70
2023-04-16T10:34:59.239Z,19.77
2023-04-16T10:37:32.900Z,19.27
2023-04-16T10:40:25.911Z,18.98
2023-04-16T10:43:01.771Z,19.55
2023-04-16T10:45:38.799Z,18.25
2023-04-16T10:48:11.969Z,18.95
2023-04-16T10:50:42.059Z,19.65
2023-04-16T10:53:27.957Z,19.13
2023-04-16T10:56:07.223Z,17.52
2023-04-16T10:58:37.350Z,18.70
2023-04-16T11:01:16.771Z,18.27
2023-04-16T11:03:48.227Z,19.58
2023-04-16T11:06:27.108Z,19.77
2023-04-16T11:08:56.414Z,18.85
2023-04-16T11:11:38.723Z,19.05
2023-04-16T11:14:13.096Z,21.17
2023-04-16T11:16:43.320Z,20.00
2023-04-16T11:19:17.934Z,19.45
2023-04-16T11:21:48.287Z,21.08
2023-04-16T11:24:18.411Z,20.17
2023-04-16T11:26:52.330Z,19.60
2023-04-16T11:29:22.573Z,20.75
2023-04-16T11:31:55.607Z,20.38
2023-04-16T11:34:26.246Z,22.38
2023-04-16T11:36:56.534Z,22.33
2023-04-16T11:39:26.801Z,24.20
2023-04-16T11:41:57.025Z,22.40
2023-04-16T11:44:28.376Z,23.70
2023-04-16T11:46:58.282Z,23.88
2023-04-16T11:49:31.689Z,23.02
2023-04-16T11:52:00.741Z,22.35
2023-04-16T11:54:34.967Z,23.20
2023-04-16T11:57:05.229Z,23.10
2023-04-16T11:59:33.627Z,22.50
2023-04-16T12:02:01.883Z,20.70
2023-04-16T12:04:30.351Z,21.73
2023-04-16T12:07:15.130Z,20.83
2023-04-16T12:09:44.367Z,20.13
2023-04-16T12:12:32.932Z,20.02
2023-04-16T12:15:05.129Z,20.20
2023-04-16T12:17:37.962Z,18.73
2023-04-16T12:20:18.272Z,19.33
2023-04-16T12:22:54.020Z,20.63
2023-04-16T12:25:25.670Z,21.45
2023-04-16T12:27:56.099Z,19.08
2023-04-16T12:30:27.050Z,19.67
2023-04-16T12:33:21.320Z,19.65
2023-04-16T12:35:51.552Z,19.52
2023-04-16T12:38:20.448Z,19.42
2023-04-16T12:40:56.935Z,18.85
2023-04-16T12:43:27.754Z,19.10
2023-04-16T12:45:57.991Z,18.25
2023-04-16T12:48:28.183Z,18.77
2023-04-16T12:50:58.386Z,18.63
2023-04-16T12:53:28.655Z,18.83
2023-04-16T12:55:59.680Z,17.42
2023-04-16T12:58:29.812Z,17.48
2023-04-16T13:01:00.162Z,17.58
2023-04-16T13:03:31.301Z,16.52
2023-04-16T13:06:02.559Z,18.17
2023-04-16T13:08:32.963Z,17.02
2023-04-16T13:11:04.617Z,17.73
2023-04-16T13:13:35.094Z,19.13
2023-04-16T13:16:06.989Z,18.23
2023-04-16T13:18:37.839Z,17.65
2023-04-16T13:21:08.749Z,18.98
2023-04-16T13:23:36.555Z,18.58
2023-04-16T13:26:04.999Z,18.55
2023-04-16T13:28:33.317Z,20.13
2023-04-16T13:31:05.088Z,18.65
2023-04-16T13:33:33.202Z,18.58
2023-04-16T13:36:01.472Z,17.90
2023-04-16T13:38:29.874Z,18.05
2023-04-16T13:40:58.363Z,17.02
2023-04-16T13:43:26.718Z,17.27
2023-04-16T13:45:55.236Z,17.95
2023-04-16T13:48:23.617Z,18.35
2023-04-16T13:50:52.056Z,17.33
2023-04-16T13:53:20.479Z,17.83
2023-04-16T13:55:49.851Z,16.35
2023-04-16T13:58:17.344Z,18.63
2023-04-16T14:00:45.838Z,16.75
2023-04-16T14:03:14.244Z,16.63
2023-04-16T14:05:43.229Z,16.95
2023-04-16T14:08:11.447Z,15.88
2023-04-16T14:10:39.305Z,16.60
2023-04-16T14:13:07.786Z,17.20
2023-04-16T14:15:38.006Z,16.08
2023-04-16T14:18:08.263Z,16.33
2023-04-16T14:20:40.003Z,18.00
2023-04-16T14:23:10.128Z,16.63
2023-04-16T14:25:40.488Z,15.60
2023-04-16T14:28:10.850Z,15.00
2023-04-16T14:30:41.114Z,16.75
2023-04-16T14:33:11.501Z,16.83
2023-04-16T14:35:41.825Z,15.73
2023-04-16T14:38:12.254Z,15.73
2023-04-16T14:40:42.428Z,15.45
2023-04-16T14:43:12.599Z,15.85
2023-04-16T14:45:41.339Z,15.10
2023-04-16T14:48:09.694Z,16.17
2023-04-16T14:50:39.152Z,15.75
2023-04-16T14:53:11.623Z,14.30
2023-04-16T14:55:41.872Z,14.82
2023-04-16T14:58:12.040Z,13.48
2023-04-16T15:00:42.327Z,14.25
2023-04-16T15:03:12.742Z,13.40
2023-04-16T15:05:43.104Z,12.85
2023-04-16T15:08:13.239Z,14.98
2023-04-16T15:10:45.878Z,14.48
2023-04-16T15:13:16.105Z,15.20
2023-04-16T15:15:46.364Z,15.68
2023-04-16T15:18:16.931Z,14.68
2023-04-16T15:20:47.095Z,15.70
2023-04-16T15:23:17.268Z,15.82
2023-04-16T15:25:47.659Z,14.07
2023-04-16T15:28:17.856Z,14.38
2023-04-16T15:30:47.992Z,11.82
2023-04-16T15:33:21.041Z,12.13
2023-04-16T15:35:51.925Z,12.23
2023-04-16T15:38:22.095Z,12.77
2023-04-16T15:40:52.466Z,12.25
2023-04-16T15:43:22.715Z,12.43
2023-04-16T15:45:52.919Z,13.55
2023-04-16T15:48:24.555Z,13.40
2023-04-16T15:50:55.596Z,12.50
2023-04-16T15:53:25.952Z,14.05
2023-04-16T15:55:56.032Z,15.13
2023-04-16T15:58:26.370Z,15.10
2023-04-16T16:00:56.798Z,15.02
2023-04-16T16:03:27.599Z,15.18
2023-04-16T16:05:59.424Z,15.27
2023-04-16T16:08:34.175Z,15.18
2023-04-16T16:11:05.122Z,14.73
2023-04-16T16:13:37.128Z,15.15
2023-04-16T16:16:07.635Z,14.77
2023-04-16T16:18:38.425Z,14.75
2023-04-16T16:21:09.253Z,14.85
2023-04-16T16:23:39.432Z,14.50
2023-04-16T16:26:09.692Z,14.55
2023-04-16T16:28:40.475Z,13.75
2023-04-16T16:31:12.481Z,15.30
2023-04-16T16:33:45.677Z,15.35
2023-04-16T16:36:16.038Z,15.48
2023-04-16T16:38:47.545Z,13.85
2023-04-16T16:41:17.714Z,15.00
2023-04-16T16:43:48.072Z,14.35
2023-04-16T16:46:18.403Z,15.95
2023-04-16T16:48:46.833Z,14.45
2023-04-16T16:51:19.015Z,15.48
2023-04-16T16:53:46.970Z,14.90
2023-04-16T16:56:14.925Z,15.70
2023-04-16T16:58:43.421Z,15.88
2023-04-16T17:01:11.921Z,16.42
2023-04-16T17:03:41.756Z,15.38
2023-04-16T17:06:12.088Z,14.60
2023-04-16T17:08:42.330Z,14.57
2023-04-16T17:11:12.515Z,14.35
2023-04-16T17:13:43.247Z,13.32
2023-04-16T17:16:15.323Z,12.35
2023-04-16T17:18:45.546Z,12.75
2023-04-16T17:21:16.889Z,12.98
2023-04-16T17:23:47.122Z,13.07
2023-04-16T17:26:17.354Z,14.10
2023-04-16T17:28:47.489Z,13.27
2023-04-16T17:31:17.730Z,14.10
2023-04-16T17:33:47.861Z,15.50
2023-04-16T17:36:16.403Z,15.13
2023-04-16T17:38:45.074Z,15.55
2023-04-16T17:41:13.250Z,13.25
2023-04-16T17:43:41.689Z,14.95
2023-04-16T17:46:13.170Z,13.98
2023-04-16T17:48:41.587Z,13.93
2023-04-16T17:51:16.692Z,13.48
2023-04-16T17:53:46.902Z,14.27
2023-04-16T17:56:17.142Z,14.73
2023-04-16T17:58:47.251Z,13.38
2023-04-16T18:01:17.704Z,12.93
2023-04-16T18:03:48.260Z,12.77
2023-04-16T18:06:19.984Z,13.38
2023-04-16T18:08:50.196Z,13.40
2023-04-16T18:11:20.454Z,12.70
2023-04-16T18:13:52.671Z,14.45
2023-04-16T18:16:23.112Z,12.60
2023-04-16T18:18:53.428Z,14.15
2023-04-16T18:21:23.680Z,16.05
2023-04-16T18:23:54.066Z,17.58
2023-04-16T18:26:25.279Z,19.35
2023-04-16T18:28:55.766Z,15.90
2023-04-16T18:31:26.782Z,14.95
2023-04-16T18:33:58.395Z,14.48
2023-04-16T18:36:28.842Z,14.70
2023-04-16T18:39:02.510Z,14.43
2023-04-16T18:41:32.385Z,14.18
2023-04-16T18:44:02.539Z,14.30
2023-04-16T18:46:32.844Z,14.50
2023-04-16T18:49:02.954Z,14.45
2023-04-16T18:51:33.302Z,14.63
2023-04-16T18:54:03.506Z,13.65
2023-04-16T18:56:33.544Z,15.02
2023-04-16T18:59:04.225Z,21.63
2023-04-16T19:01:32.394Z,17.95
2023-04-16T19:04:01.784Z,21.33
2023-04-16T19:06:29.442Z,16.75
2023-04-16T19:08:57.812Z,23.08
2023-04-16T19:11:26.385Z,21.33
2023-04-16T19:13:54.538Z,16.90
2023-04-16T19:16:23.120Z,17.10
2023-04-16T19:18:51.735Z,17.15
2023-04-16T19:21:19.892Z,16.35
2023-04-16T19:23:49.150Z,16.35
2023-04-16T19:26:16.598Z,15.77
2023-04-16T19:28:46.116Z,16.40
2023-04-16T19:31:13.541Z,16.48
2023-04-16T19:33:41.905Z,16.38
2023-04-16T19:36:10.472Z,16.85
2023-04-16T19:38:38.809Z,15.88
2023-04-16T19:41:07.218Z,17.60
2023-04-16T19:43:37.160Z,15.68
2023-04-16T19:46:07.020Z,15.85
2023-04-16T19:48:35.471Z,14.70
2023-04-16T19:51:05.744Z,15.60
2023-04-16T19:53:36.064Z,17.10
2023-04-16T19:56:04.142Z,16.45
2023-04-16T19:58:34.266Z,17.02
2023-04-16T20:01:10.618Z,17.13
2023-04-16T20:03:39.211Z,18.13
2023-04-16T20:06:08.698Z,17.83
2023-04-16T20:08:39.063Z,19.27
2023-04-16T20:11:09.156Z,19.33
2023-04-16T20:13:39.433Z,18.15
2023-04-16T20:16:09.597Z,17.60
2023-04-16T20:18:43.914Z,17.65
2023-04-16T20:21:13.050Z,17.73
2023-04-16T20:23:43.296Z,18.13
2023-04-16T20:26:20.335Z,16.90
2023-04-16T20:28:48.309Z,17.70
2023-04-16T20:31:15.763Z,17.92
2023-04-16T20:33:46.105Z,18.83
2023-04-16T20:36:14.393Z,18.10
2023-04-16T20:38:43.790Z,17.60
2023-04-16T20:41:12.722Z,17.10
2023-04-16T20:43:43.208Z,17.52
2023-04-16T20:46:12.888Z,15.85
2023-04-16T20:48:42.963Z,17.77
2023-04-16T20:51:11.006Z,17.20
2023-04-16T20:53:39.457Z,17.70
2023-04-16T20:56:09.264Z,16.98
2023-04-16T20:58:39.195Z,17.90
2023-04-16T21:01:06.419Z,18.15
2023-04-16T21:03:37.292Z,16.30
2023-04-16T21:06:06.583Z,16.40
2023-04-16T21:08:36.789Z,16.70
2023-04-16T21:11:06.952Z,16.88
2023-04-16T21:13:37.093Z,18.10
2023-04-16T21:16:09.967Z,17.27
2023-04-16T21:18:39.515Z,16.48
2023-04-16T21:21:09.537Z,15.98
2023-04-16T21:23:39.857Z,15.98
2023-04-16T21:26:09.984Z,16.95
2023-04-16T21:28:40.146Z,16.45
2023-04-16T21:31:10.384Z,16.92
2023-04-16T21:33:40.742Z,16.20
2023-04-16T21:36:11.644Z,15.30
2023-04-16T21:38:41.455Z,16.52
2023-04-16T21:41:11.705Z,16.45
2023-04-16T21:43:41.719Z,16.50
2023-04-16T21:46:12.032Z,17.73
2023-04-16T21:48:42.093Z,16.63
2023-04-16T21:51:10.527Z,16.08
2023-04-16T21:53:39.210Z,15.82
2023-04-16T21:56:07.971Z,16.25
2023-04-16T21:58:35.830Z,17.52
2023-04-16T22:01:04.337Z,15.85
2023-04-16T22:03:33.584Z,16.67
2023-04-16T22:06:01.661Z,17.33
2023-04-16T22:08:30.555Z,16.92
2023-04-16T22:11:03.377Z,17.23
2023-04-16T22:13:33.577Z,17.10
2023-04-16T22:16:04.110Z,17.27
2023-04-16T22:18:34.402Z,16.65
2023-04-16T22:21:05.414Z,16.35
2023-04-16T22:23:35.723Z,15.40
2023-04-16T22:26:06.409Z,16.33
2023-04-16T22:28:36.561Z,17.23
2023-04-16T22:31:07.002Z,17.08
2023-04-16T22:33:37.181Z,17.25
2023-04-16T22:36:07.693Z,16.88
2023-04-16T22:38:38.925Z,16.75
2023-04-16T22:41:09.093Z,17.52
2023-04-16T22:43:39.287Z,17.45
2023-04-16T22:46:09.969Z,17.23
2023-04-16T22:48:39.302Z,17.42
2023-04-16T22:51:09.420Z,17.92
2023-04-16T22:53:38.892Z,16.70
2023-04-16T22:56:09.031Z,17.80
2023-04-16T22:58:39.279Z,17.95
2023-04-16T23:01:09.512Z,16.92
2023-04-16T23:03:39.909Z,16.83
2023-04-16T23:06:09.852Z,17.08
2023-04-16T23:08:40.113Z,15.65
2023-04-16T23:11:10.194Z,16.13
2023-04-16T23:13:40.458Z,16.45
2023-04-16T23:16:10.947Z,17.38
2023-04-16T23:18:40.434Z,16.05
2023-04-16T23:21:10.673Z,15.70
2023-04-16T23:23:38.955Z,17.58
2023-04-16T23:26:07.496Z,16.23
2023-04-16T23:28:36.027Z,17.05
2023-04-16T23:31:06.653Z,16.08
2023-04-16T23:33:35.658Z,16.33
2023-04-16T23:36:04.557Z,16.38
2023-04-16T23:38:32.576Z,17.50
2023-04-16T23:41:01.100Z,18.30
2023-04-16T23:43:29.405Z,16.70
2023-04-16T23:45:57.842Z,16.73
2023-04-16T23:48:26.233Z,17.08
2023-04-16T23:50:54.653Z,16.10
2023-04-16T23:53:23.094Z,15.40
2023-04-16T23:55:52.066Z,17.15
2023-04-16T23:58:19.957Z,17.70
